Latest Coastal Weather Observations for Rhyll

IDV60701

Issued at 10:05 pm EDT Sunday 23 November 2014 (issued every 10 minutes, with the page automatically refreshed every 10 minutes)

About coastal observations | Map of coastal stations | Coastal observations for VIC | Marine services | Other Formats
Station Details ID: 086373 Name: RHYLL Lat: -38.46 Lon: 145.31 Height: 13.4 m
Data from the previous 72 hours. | See also: Recent months at Rhyll
Date/Time
EDT
Temp

°C
Wind Pressure Rain
since 9am
mm
Weather Cloud Vis
km
Sea
Height
m
Swell
Dir
 
Speed
knots
Gust
knots
hPa Trend Height
m
Period
s
Dir
23/10:00pm 16.6 ESE 10 12 1013.9 - 0.0 - - - - - - -
23/09:30pm 16.6 ESE 11 13 1013.7 - 0.0 - - - - - - -
23/09:00pm 16.4 SE 5 9 1013.7 - 0.0 - - - - - - -
23/08:30pm 16.4 ESE 7 10 1013.7 - 0.0 - - - - - - -
23/08:00pm 16.5 SE 5 10 1013.6 - 0.0 - - - - - - -
23/07:30pm 16.6 SE 5 9 1013.6 - 0.0 - - - - - - -
23/07:00pm 16.9 SSE 4 7 1013.6 - 0.0 - - - - - - -
23/06:30pm 17.0 SE 5 8 1013.3 - 0.0 - - - - - - -
23/06:00pm 17.2 SE 5 9 1013.2 - 0.0 - - - - - - -
23/05:30pm 17.6 SE 6 8 1012.9 - 0.0 - - - - - - -
23/05:00pm 18.3 SSE 7 10 1012.5 - 0.0 - - - - - - -
23/04:30pm 18.6 SE 7 10 1012.2 - 0.0 - - - - - - -
23/04:00pm 20.5 S 7 10 1012.2 - 0.0 - - - - - - -
23/03:30pm 20.7 S 8 11 1012.2 - 0.0 - - - - - - -
23/03:00pm 21.6 S 7 9 1012.2 - 0.0 - - - - - - -
23/02:30pm 22.0 S 7 9 1012.0 - 0.0 - - - - - - -
23/02:00pm 20.5 S 6 9 1012.1 - 0.0 - - - - - - -
23/01:30pm 22.0 S 6 8 1012.1 - 0.0 - - - - - - -
23/01:00pm 20.5 S 5 7 1012.3 - 0.0 - - - - - - -
23/12:30pm 21.1 S 5 8 1012.4 - 0.0 - - - - - - -
23/12:00pm 20.7 S 5 9 1012.5 - 0.0 - - - - - - -
23/11:30am 20.6 S 6 9 1012.5 - 0.0 - - - - - - -
23/11:00am 19.8 S 6 9 1012.7 - 0.0 - - - - - - -
23/10:30am 21.2 S 4 7 1012.9 - 0.0 - - - - - - -
23/10:00am 20.1 S 4 7 1012.8 - 0.0 - - - - - - -
23/09:30am 19.7 S 3 6 1012.9 - 0.0 - - - - - - -
23/09:00am 18.8 SSW 3 5 1012.9 - 0.0 - - - - - - -
23/08:30am 17.5 SW 4 7 1012.7 - 0.0 - - - - - - -
23/08:00am 16.5 W 3 5 1012.6 - 0.0 - - - - - - -
23/07:30am 16.1 WSW 3 6 1012.3 - 0.0 - - - - - - -
23/07:00am 15.5 WSW 2 4 1012.1 - 0.0 - - - - - - -
23/06:30am 15.3 W 2 3 1011.7 - 0.0 - - - - - - -
23/06:00am 15.3 W 2 3 1011.5 - 0.0 - - - - - - -
23/05:30am 15.7 W 3 5 1011.2 - 0.0 - - - - - - -
23/05:00am 15.7 WSW 4 7 1010.9 - 0.0 - - - - - - -
23/04:30am 16.0 WSW 3 7 1010.6 - 0.0 - - - - - - -
23/04:00am 16.0 WSW 4 9 1010.1 - 0.0 - - - - - - -
23/03:30am 16.1 WSW 6 12 1010.0 - 0.0 - - - - - - -
23/03:00am 16.2 WSW 6 9 1009.8 - 0.0 - - - - - - -
23/02:30am 16.2 WSW 5 8 1009.7 - 0.0 - - - - - - -
23/02:00am 16.4 WSW 5 10 1009.6 - 0.0 - - - - - - -
23/01:30am 16.1 W 4 7 1009.8 - 0.0 - - - - - - -
23/01:00am 16.0 W 3 7 1009.4 - 0.0 - - - - - - -
23/12:30am 16.1 W 2 5 1009.2 - 0.0 - - - - - - -
23/12:00am 16.7 W 3 6 1008.6 - 0.0 - - - - - - -
 
Date/Time
EDT
Temp

°C
Wind Pressure Rain
since 9am
mm
Weather Cloud Vis
km
Sea
Height
m
Swell
Dir
 
Speed
knots
Gust
knots
hPa Trend Height
m
Period
s
Dir
22/11:30pm 17.1 W 4 7 1008.6 - 0.0 - - - - - - -
22/11:00pm 17.6 WSW 4 8 1008.5 - 0.0 - - - - - - -
22/10:30pm 18.1 WSW 4 7 1008.1 - 0.0 - - - - - - -
22/10:00pm 18.7 WSW 4 8 1007.5 - 0.0 - - - - - - -
22/09:30pm 19.3 W 6 10 1006.9 - 0.0 - - - - - - -
22/09:00pm 20.5 WSW 8 14 1006.0 - 0.0 - - - - - - -
22/08:30pm 21.2 SW 6 12 1005.6 - 0.0 - - - - - - -
22/08:00pm 23.1 WSW 11 21 1006.6 - 0.0 - - - - - - -
22/07:58pm 23.9 WSW 11 21 1006.8 - 0.0 - - - - - - -
22/07:30pm 24.6 NNW 12 16 1004.7 - 0.0 - - - - - - -
22/07:00pm 26.3 N 17 20 1003.7 - 0.0 - - - - - - -
22/06:30pm 26.1 N 16 21 1003.7 - 0.0 - - - - - - -
22/06:00pm 25.9 N 11 16 1004.6 - 0.0 - - - - - - -
22/05:30pm 26.5 N 10 14 1005.0 - 0.0 - - - - - - -
22/05:00pm 25.9 NNW 14 17 1005.2 - 0.0 - - - - - - -
22/04:30pm 25.6 NNW 14 19 1005.5 - 0.0 - - - - - - -
22/04:00pm 25.6 NNW 15 22 1005.9 - 0.0 - - - - - - -
22/03:30pm 25.8 NNW 13 18 1006.4 - 0.0 - - - - - - -
22/03:00pm 24.9 NNW 11 15 1006.8 - 0.0 - - - - - - -
22/02:30pm 24.5 N 13 16 1006.9 - 0.0 - - - - - - -
22/02:00pm 24.2 N 13 17 1007.4 - 0.0 - - - - - - -
22/01:30pm 24.6 NNW 13 20 1007.9 - 0.0 - - - - - - -
22/01:00pm 23.7 N 15 19 1008.1 - 0.0 - - - - - - -
22/12:44pm 22.9 N 15 27 1008.2 - 0.0 - - - - - - -
22/12:30pm 22.1 N 11 15 1008.4 - 0.0 - - - - - - -
22/12:00pm 21.9 N 4 8 1009.3 - 0.0 - - - - - - -
22/11:30am 19.9 N 11 13 1009.9 - 0.0 - - - - - - -
22/11:00am 19.8 NNE 6 8 1009.8 - 0.0 - - - - - - -
22/10:30am 17.9 NNE 7 10 1010.2 - 0.0 - - - - - - -
22/10:00am 17.8 NE 8 10 1010.5 - 0.0 - - - - - - -
22/09:30am 16.9 NNE 3 7 1011.0 - 0.0 - - - - - - -
22/09:00am 16.5 NNE 5 9 1011.0 - 0.0 - - - - - - -
22/08:30am 15.6 N 6 8 1011.5 - 0.0 - - - - - - -
22/08:00am 16.1 NNE 11 12 1010.6 - 0.0 - - - - - - -
22/07:30am 14.9 NE 11 13 1010.6 - 0.0 - - - - - - -
22/07:00am 14.5 NNE 5 8 1010.9 - 0.0 - - - - - - -
22/06:30am 14.4 NNE 7 10 1010.6 - 0.0 - - - - - - -
22/06:00am 14.3 NNE 10 13 1010.1 - 0.0 - - - - - - -
22/05:30am 14.3 NNE 8 12 1009.8 - 0.0 - - - - - - -
22/05:00am 14.1 NNE 6 8 1009.9 - 0.0 - - - - - - -
22/04:30am 14.2 N 5 6 1010.0 - 0.0 - - - - - - -
22/04:00am 14.2 NNE 4 8 1010.0 - 0.0 - - - - - - -
22/03:30am 13.7 NE 5 6 1010.1 - 0.0 - - - - - - -
22/03:00am 13.3 ENE 6 7 1010.1 - 0.0 - - - - - - -
22/02:30am 13.0 E 4 6 1010.5 - 0.0 - - - - - - -
22/02:00am 13.1 E 4 6 1011.0 - 0.0 - - - - - - -
22/01:30am 13.1 E 5 9 1011.6 - 0.0 - - - - - - -
22/01:00am 13.4 ESE 5 6 1012.1 - 0.0 - - - - - - -
22/12:30am 13.8 ESE 5 7 1012.6 - 0.0 - - - - - - -
22/12:00am 13.9 ESE 7 8 1012.6 - 0.0 - - - - - - -
 
Date/Time
EDT
Temp

°C
Wind Pressure Rain
since 9am
mm
Weather Cloud Vis
km
Sea
Height
m
Swell
Dir
 
Speed
knots
Gust
knots
hPa Trend Height
m
Period
s
Dir
21/11:30pm 14.2 ESE 9 11 1012.8 - 0.0 - - - - - - -
21/11:00pm 14.2 ESE 6 11 1013.0 - 0.0 - - - - - - -
21/10:30pm 14.3 SE 5 8 1013.1 - 0.0 - - - - - - -
21/10:00pm 13.9 SE 4 8 1013.4 - 0.0 - - - - - - -
21/09:30pm 13.7 SE 3 7 1013.4 - 0.0 - - - - - - -
21/09:00pm 13.6 SSE 5 9 1012.8 - 0.0 - - - - - - -
21/08:30pm 13.6 S 4 7 1012.7 - 0.0 - - - - - - -
21/08:00pm 14.4 S 4 6 1012.5 - 0.0 - - - - - - -
21/07:30pm 16.3 S 4 6 1012.3 - 0.0 - - - - - - -
21/07:00pm 16.7 S 3 7 1011.9 - 0.0 - - - - - - -
21/06:30pm 17.1 S 4 8 1011.7 - 0.0 - - - - - - -
21/06:00pm 17.3 S 4 9 1011.7 - 0.0 - - - - - - -
21/05:30pm 17.6 S 4 8 1011.6 - 0.0 - - - - - - -
21/05:00pm 17.8 S 5 8 1011.6 - 0.0 - - - - - - -
21/04:30pm 17.4 S 6 12 1011.5 - 0.0 - - - - - - -
21/04:00pm 18.7 S 5 10 1011.6 - 0.0 - - - - - - -
21/03:30pm 17.7 SSW 7 12 1011.7 - 0.0 - - - - - - -
21/03:00pm 17.6 SSW 9 15 1011.7 - 0.0 - - - - - - -
21/02:30pm 18.1 SSW 8 15 1011.7 - 0.0 - - - - - - -
21/02:00pm 18.2 SSW 7 13 1011.7 - 0.0 - - - - - - -
21/01:30pm 17.5 SSW 8 15 1011.6 - 0.0 - - - - - - -
21/01:00pm 18.2 WSW 4 8 1011.6 - 0.0 - - - - - - -
21/12:30pm 18.0 WSW 5 10 1011.6 - 0.0 - - - - - - -
21/12:00pm 17.0 SW 6 11 1011.7 - 0.0 - - - - - - -
21/11:30am 16.9 WSW 7 12 1011.8 - 0.0 - - - - - - -
21/11:00am 16.4 WSW 8 15 1011.7 - 0.0 - - - - - - -
21/10:30am 16.3 WSW 8 13 1011.1 - 0.0 - - - - - - -
21/10:00am 16.5 WSW 7 12 1010.9 - 0.0 - - - - - - -
21/09:30am 15.9 WSW 8 12 1010.8 - 0.0 - - - - - - -
21/09:00am 15.6 WSW 7 14 1010.5 - 4.8 - - - - - - -
21/08:30am 15.2 SW 8 13 1010.3 - 4.8 - - - - - - -
21/08:00am 14.9 WSW 8 15 1009.7 - 4.8 - - - - - - -
21/07:30am 14.4 WSW 5 11 1008.8 - 4.8 - - - - - - -
21/07:00am 14.3 WSW 6 10 1008.2 - 4.8 - - - - - - -
21/06:30am 14.7 WSW 8 13 1007.9 - 4.8 - - - - - - -
21/06:00am 15.4 W 5 10 1007.3 - 4.8 - - - - - - -
21/05:30am 15.4 WSW 7 15 1006.9 - 4.8 - - - - - - -
21/05:00am 15.4 WSW 8 14 1006.6 - 4.8 - - - - - - -
21/04:30am 15.4 WSW 9 17 1006.2 - 4.8 - - - - - - -
21/04:00am 15.4 WSW 9 15 1005.7 - 4.6 - - - - - - -
21/03:30am 15.6 SW 9 16 1005.2 - 4.6 - - - - - - -
21/03:00am 15.6 WSW 8 14 1005.3 - 4.6 - - - - - - -
21/02:30am 15.7 SW 10 14 1005.1 - 4.6 - - - - - - -
21/02:00am 16.2 SW 11 18 1005.1 - 4.6 - - - - - - -
21/01:30am 18.2 W 2 6 1004.6 - 4.6 - - - - - - -
21/01:00am 18.2 NNW 7 9 1004.3 - 4.6 - - - - - - -
21/12:30am 18.4 N 12 14 1004.3 - 4.6 - - - - - - -
21/12:00am 18.5 NNW 11 13 1004.7 - 4.6 - - - - - - -
 
Date/Time
EDT
Temp

°C
Wind Pressure Rain
since 9am
mm
Weather Cloud Vis
km
Sea
Height
m
Swell
Dir
 
Speed
knots
Gust
knots
hPa Trend Height
m
Period
s
Dir
20/11:30pm 18.9 N 14 17 1004.8 - 4.6 - - - - - - -
20/11:00pm 18.7 NNW 12 15 1005.2 - 4.6 - - - - - - -
20/10:30pm 18.8 N 15 18 1005.2 - 4.6 - - - - - - -

Other Formats:

Comma delimited format used in spreadsheet applications
http://www.bom.gov.au/fwo/IDV60701/IDV60701.94892.axf

JavaScript Object Notation format (JSON) in row-major order
http://www.bom.gov.au/fwo/IDV60701/IDV60701.94892.json